createdAt,value
2023-08-22T00:00:31.508Z,9.40
2023-08-22T00:02:59.589Z,10.43
2023-08-22T00:05:27.194Z,9.50
2023-08-22T00:07:54.798Z,8.90
2023-08-22T00:10:21.615Z,10.10
2023-08-22T00:12:48.563Z,9.23
2023-08-22T00:15:15.403Z,9.07
2023-08-22T00:17:43.192Z,12.23
2023-08-22T00:20:11.161Z,10.50
2023-08-22T00:22:38.667Z,10.73
2023-08-22T00:25:06.191Z,11.50
2023-08-22T00:27:33.381Z,10.60
2023-08-22T00:30:00.224Z,11.70
2023-08-22T00:32:27.348Z,12.20
2023-08-22T00:34:54.655Z,11.47
2023-08-22T00:37:22.250Z,11.30
2023-08-22T00:39:50.763Z,11.70
2023-08-22T00:42:18.226Z,11.60
2023-08-22T00:44:45.889Z,12.43
2023-08-22T00:47:13.646Z,11.60
2023-08-22T00:49:41.581Z,13.53
2023-08-22T00:52:09.216Z,12.67
2023-08-22T00:54:36.607Z,12.30
2023-08-22T00:57:05.031Z,13.57
2023-08-22T00:59:33.256Z,12.50
2023-08-22T01:02:00.489Z,13.67
2023-08-22T01:04:27.346Z,15.70
2023-08-22T01:07:08.718Z,14.57
2023-08-22T01:09:42.155Z,16.10
2023-08-22T01:12:29.294Z,16.10
2023-08-22T01:15:06.875Z,15.70
2023-08-22T01:17:35.655Z,15.87
2023-08-22T01:20:04.392Z,17.10
2023-08-22T01:22:32.089Z,18.90
2023-08-22T01:24:59.136Z,17.30
2023-08-22T01:27:28.199Z,17.20
2023-08-22T01:30:06.211Z,17.83
2023-08-22T01:32:36.674Z,18.50
2023-08-22T01:35:05.816Z,17.70
2023-08-22T01:37:33.591Z,18.37
2023-08-22T01:40:01.565Z,16.97
2023-08-22T01:42:29.732Z,17.27
2023-08-22T01:44:56.839Z,19.57
2023-08-22T01:47:23.579Z,16.57
2023-08-22T01:49:50.644Z,15.60
2023-08-22T01:52:19.550Z,17.10
2023-08-22T01:54:46.538Z,17.47
2023-08-22T01:57:13.299Z,17.90
2023-08-22T01:59:40.738Z,19.37
2023-08-22T02:02:09.103Z,18.87
2023-08-22T02:04:36.550Z,19.00
2023-08-22T02:07:04.213Z,19.87
2023-08-22T02:09:31.074Z,17.93
2023-08-22T02:11:58.157Z,18.23
2023-08-22T02:14:25.535Z,20.50
2023-08-22T02:16:52.621Z,19.80
2023-08-22T02:19:19.976Z,19.10
2023-08-22T02:21:48.276Z,19.30
2023-08-22T02:24:15.512Z,18.83
2023-08-22T02:26:44.359Z,21.17
2023-08-22T02:29:11.646Z,20.73
2023-08-22T02:31:38.988Z,20.03
2023-08-22T02:34:06.492Z,21.20
2023-08-22T02:36:33.592Z,17.77
2023-08-22T02:39:00.599Z,19.57
2023-08-22T02:41:28.288Z,22.57
2023-08-22T02:43:57.652Z,20.50
2023-08-22T02:46:24.690Z,21.03
2023-08-22T02:48:51.811Z,21.07
2023-08-22T02:51:19.215Z,19.20
2023-08-22T02:53:49.435Z,17.87
2023-08-22T02:56:16.631Z,17.43
2023-08-22T02:58:43.599Z,19.07
2023-08-22T03:01:11.131Z,19.63
2023-08-22T03:03:42.609Z,20.13
2023-08-22T03:06:25.485Z,20.73
2023-08-22T03:08:53.357Z,21.40
2023-08-22T03:11:23.355Z,20.47
2023-08-22T03:13:53.803Z,21.70
2023-08-22T03:16:21.321Z,20.53
2023-08-22T03:18:48.896Z,21.70
2023-08-22T03:21:16.457Z,21.27
2023-08-22T03:23:45.244Z,23.03
2023-08-22T03:26:15.323Z,20.77
2023-08-22T03:28:43.143Z,21.57
2023-08-22T03:31:11.296Z,23.53
2023-08-22T03:33:39.104Z,25.93
2023-08-22T03:36:08.974Z,24.37
2023-08-22T03:38:35.997Z,25.30
2023-08-22T03:41:03.978Z,22.90
2023-08-22T03:43:31.582Z,23.17
2023-08-22T03:46:02.045Z,26.00
2023-08-22T03:48:29.275Z,24.87
2023-08-22T03:50:57.857Z,24.20
2023-08-22T03:53:25.170Z,27.40
2023-08-22T03:55:53.126Z,27.50
2023-08-22T03:58:20.170Z,25.03
2023-08-22T04:00:47.047Z,24.40
2023-08-22T04:03:14.593Z,24.07
2023-08-22T04:05:43.208Z,23.93
2023-08-22T04:08:10.063Z,25.00
2023-08-22T04:10:37.405Z,22.77
2023-08-22T04:13:04.627Z,24.23
2023-08-22T04:15:31.387Z,25.77
2023-08-22T04:17:59.151Z,25.07
2023-08-22T04:20:26.000Z,24.20
2023-08-22T04:22:52.858Z,27.00
2023-08-22T04:25:19.810Z,27.07
2023-08-22T04:27:47.565Z,28.60
2023-08-22T04:30:16.093Z,28.60
2023-08-22T04:32:43.119Z,27.67
2023-08-22T04:35:09.849Z,27.50
2023-08-22T04:37:43.686Z,28.40
2023-08-22T04:40:11.986Z,27.40
2023-08-22T04:42:47.045Z,27.10
2023-08-22T04:45:15.825Z,25.43
2023-08-22T04:47:43.109Z,26.20
2023-08-22T04:50:10.625Z,26.67
2023-08-22T04:52:38.171Z,26.50
2023-08-22T04:55:06.257Z,26.27
2023-08-22T04:57:34.618Z,25.93
2023-08-22T05:00:01.795Z,25.23
2023-08-22T05:02:29.566Z,28.90
2023-08-22T05:04:57.810Z,26.97
2023-08-22T05:07:25.512Z,25.10
2023-08-22T05:09:54.376Z,25.63
2023-08-22T05:12:22.480Z,25.10
2023-08-22T05:14:49.337Z,24.73
2023-08-22T05:17:17.085Z,23.13
2023-08-22T05:19:44.861Z,22.17
2023-08-22T05:22:13.001Z,24.47
2023-08-22T05:24:40.256Z,24.50
2023-08-22T05:27:07.503Z,20.43
2023-08-22T05:29:35.105Z,21.30
2023-08-22T05:32:03.016Z,18.63
2023-08-22T05:34:32.200Z,21.20
2023-08-22T05:36:59.637Z,21.73
2023-08-22T05:39:27.022Z,19.83
2023-08-22T05:41:54.081Z,21.90
2023-08-22T05:44:22.839Z,19.17
2023-08-22T05:46:50.622Z,19.87
2023-08-22T05:49:20.127Z,20.70
2023-08-22T05:51:47.360Z,19.87
2023-08-22T05:54:15.172Z,18.83
2023-08-22T05:56:42.943Z,18.63
2023-08-22T05:59:10.351Z,17.07
2023-08-22T06:01:38.723Z,19.40
2023-08-22T06:04:09.015Z,18.27
2023-08-22T06:06:36.417Z,17.07
2023-08-22T06:09:06.016Z,15.77
2023-08-22T06:11:33.272Z,15.50
2023-08-22T06:14:00.893Z,15.80
2023-08-22T06:16:28.047Z,14.77
2023-08-22T06:18:55.546Z,14.70
2023-08-22T06:21:22.951Z,14.03
2023-08-22T06:23:50.620Z,14.07
2023-08-22T06:26:18.750Z,13.20
2023-08-22T06:28:48.383Z,12.20
2023-08-22T06:31:15.678Z,13.13
2023-08-22T06:33:43.346Z,15.23
2023-08-22T06:36:10.794Z,14.57
2023-08-22T06:38:38.636Z,13.23
2023-08-22T06:41:06.169Z,12.53
2023-08-22T06:46:28.573Z,12.23
2023-08-22T06:48:56.617Z,14.50
2023-08-22T06:51:26.080Z,14.20
2023-08-22T06:53:53.523Z,14.27
2023-08-22T06:56:20.891Z,13.10
2023-08-22T06:58:48.604Z,14.83
2023-08-22T07:01:16.451Z,16.03
2023-08-22T07:03:44.938Z,14.13
2023-08-22T07:06:12.038Z,12.57
2023-08-22T07:08:39.200Z,13.60
2023-08-22T07:11:06.566Z,11.93
2023-08-22T07:13:34.803Z,13.87
2023-08-22T07:16:01.885Z,15.07
2023-08-22T07:18:29.268Z,14.57
2023-08-22T07:20:56.171Z,16.30
2023-08-22T07:23:23.900Z,14.23
2023-08-22T07:25:51.632Z,15.00
2023-08-22T07:28:19.642Z,13.50
2023-08-22T07:30:49.851Z,15.50
2023-08-22T07:33:18.259Z,14.00
2023-08-22T07:35:46.421Z,13.83
2023-08-22T07:38:14.360Z,15.30
2023-08-22T07:40:42.564Z,14.93
2023-08-22T07:43:10.302Z,13.90
2023-08-22T07:45:37.671Z,14.47
2023-08-22T07:48:04.800Z,13.83
2023-08-22T07:50:32.803Z,14.43
2023-08-22T07:53:01.490Z,12.60
2023-08-22T07:55:28.573Z,12.03
2023-08-22T07:57:56.000Z,11.93
2023-08-22T08:00:24.216Z,12.00
2023-08-22T08:02:52.433Z,11.67
2023-08-22T08:05:23.350Z,11.10
2023-08-22T08:07:51.521Z,12.67
2023-08-22T08:10:20.164Z,10.30
2023-08-22T08:12:47.381Z,11.00
2023-08-22T08:15:14.469Z,13.13
2023-08-22T08:17:41.458Z,12.73
2023-08-22T08:20:11.954Z,10.83
2023-08-22T08:22:39.468Z,11.97
2023-08-22T08:25:07.086Z,10.00
2023-08-22T08:27:34.547Z,9.00
2023-08-22T08:30:06.726Z,9.50
2023-08-22T08:32:34.890Z,9.00
2023-08-22T08:35:03.045Z,6.60
2023-08-22T08:37:30.777Z,6.57
2023-08-22T08:39:58.622Z,6.90
2023-08-22T08:42:26.480Z,6.40
2023-08-22T08:44:53.810Z,5.10
2023-08-22T08:47:20.935Z,6.70
2023-08-22T08:49:48.673Z,6.87
2023-08-22T08:52:17.168Z,6.93
2023-08-22T08:54:45.346Z,6.50
2023-08-22T08:57:12.891Z,6.60
2023-08-22T08:59:41.542Z,8.07
2023-08-22T09:02:12.289Z,6.80
2023-08-22T09:04:43.514Z,7.03
2023-08-22T09:07:10.724Z,7.13
2023-08-22T09:09:38.154Z,6.70
2023-08-22T09:12:09.437Z,5.77
2023-08-22T09:14:47.592Z,6.97
2023-08-22T09:17:19.144Z,7.23
2023-08-22T09:19:46.812Z,6.57
2023-08-22T09:22:15.770Z,7.20
2023-08-22T09:24:51.928Z,5.87
2023-08-22T09:27:24.104Z,5.80
2023-08-22T09:29:51.027Z,6.40
2023-08-22T09:32:17.992Z,6.77
2023-08-22T09:34:55.368Z,7.70
2023-08-22T09:37:36.229Z,8.67
2023-08-22T09:40:07.711Z,8.30
2023-08-22T09:42:38.458Z,7.60
2023-08-22T09:45:06.274Z,6.00
2023-08-22T09:47:36.584Z,6.20
2023-08-22T09:50:07.942Z,6.47
2023-08-22T09:52:37.982Z,7.87
2023-08-22T09:55:06.090Z,7.60
2023-08-22T09:57:35.100Z,7.13
2023-08-22T10:00:04.214Z,8.40
2023-08-22T10:02:41.116Z,7.97
2023-08-22T10:05:09.675Z,7.20
2023-08-22T10:07:36.958Z,7.67
2023-08-22T10:10:05.512Z,7.73
2023-08-22T10:12:33.222Z,7.90
2023-08-22T10:15:00.803Z,8.30
2023-08-22T10:17:28.458Z,8.23
2023-08-22T10:20:06.011Z,7.67
2023-08-22T10:22:36.279Z,9.20
2023-08-22T10:25:06.340Z,8.10
2023-08-22T10:27:34.344Z,9.50
2023-08-22T10:30:20.666Z,8.20
2023-08-22T10:36:05.927Z,8.77
2023-08-22T10:36:26.360Z,8.40
2023-08-22T10:38:53.058Z,10.43
2023-08-22T10:41:24.828Z,8.33
2023-08-22T10:43:55.114Z,8.40
2023-08-22T10:46:42.931Z,10.03
2023-08-22T10:49:10.811Z,7.00
2023-08-22T10:51:44.664Z,7.53
2023-08-22T10:54:17.552Z,8.33
2023-08-22T10:56:44.921Z,10.20
2023-08-22T10:59:11.672Z,7.37
2023-08-22T11:01:39.128Z,7.10
2023-08-22T11:04:09.757Z,6.47
2023-08-22T11:06:39.060Z,6.17
2023-08-22T11:09:06.927Z,5.33
2023-08-22T11:11:36.420Z,5.80
2023-08-22T11:14:04.100Z,4.07
2023-08-22T11:16:31.841Z,5.30
2023-08-22T11:18:59.007Z,4.17
2023-08-22T11:21:26.475Z,3.77
2023-08-22T11:23:55.616Z,2.10
2023-08-22T11:26:24.029Z,2.70
2023-08-22T11:28:51.765Z,2.87
2023-08-22T11:31:18.878Z,2.70
2023-08-22T11:33:51.952Z,3.10
2023-08-22T11:36:20.187Z,2.00
2023-08-22T11:38:48.832Z,2.80
2023-08-22T11:41:15.965Z,2.30
2023-08-22T11:43:47.579Z,1.80
2023-08-22T11:46:15.210Z,1.70
2023-08-22T11:48:42.506Z,3.93
2023-08-22T11:51:09.935Z,3.63
2023-08-22T11:53:37.238Z,2.97
2023-08-22T11:56:06.600Z,2.40
2023-08-22T11:58:37.207Z,1.67
2023-08-22T12:01:05.363Z,1.97
2023-08-22T12:03:45.355Z,2.00
2023-08-22T12:06:13.659Z,2.00
2023-08-22T12:08:40.681Z,2.50
2023-08-22T12:11:07.763Z,2.37
2023-08-22T12:13:37.044Z,2.80
2023-08-22T12:16:07.485Z,2.33
2023-08-22T12:18:36.146Z,1.63
2023-08-22T12:21:04.021Z,2.10
2023-08-22T12:23:31.609Z,1.50
2023-08-22T12:25:59.166Z,1.63
2023-08-22T12:28:26.740Z,1.57
2023-08-22T12:30:54.038Z,1.70
2023-08-22T12:33:21.517Z,2.10
2023-08-22T12:35:49.392Z,2.20
2023-08-22T12:38:17.035Z,2.70
2023-08-22T12:40:44.840Z,1.90
2023-08-22T12:43:11.950Z,3.53
2023-08-22T12:45:39.744Z,4.07
2023-08-22T12:48:07.538Z,4.53
2023-08-22T12:50:36.991Z,4.20
2023-08-22T12:53:07.631Z,4.00
2023-08-22T12:55:34.545Z,5.80
2023-08-22T12:58:02.327Z,3.70
2023-08-22T13:00:29.803Z,3.33
2023-08-22T13:02:57.273Z,3.30
2023-08-22T13:05:24.783Z,3.80
2023-08-22T13:07:52.130Z,3.40
2023-08-22T13:10:18.894Z,3.10
2023-08-22T13:12:46.198Z,3.07
2023-08-22T13:15:18.367Z,2.83
2023-08-22T13:17:45.946Z,3.03
2023-08-22T13:20:14.067Z,3.00
2023-08-22T13:22:40.985Z,3.43
2023-08-22T13:25:08.419Z,2.60
2023-08-22T13:27:36.820Z,3.30
2023-08-22T13:30:07.196Z,2.30
2023-08-22T13:32:34.237Z,2.80
2023-08-22T13:35:01.374Z,3.23
2023-08-22T13:37:32.447Z,3.77
2023-08-22T13:40:00.390Z,3.57
2023-08-22T13:42:28.237Z,3.63
2023-08-22T13:44:55.282Z,3.83
2023-08-22T13:47:22.676Z,3.93
2023-08-22T13:49:52.692Z,3.00
2023-08-22T13:52:28.287Z,2.83
2023-08-22T13:54:55.816Z,2.83
2023-08-22T13:57:23.686Z,2.50
2023-08-22T13:59:52.157Z,3.40
2023-08-22T14:02:19.305Z,2.27
2023-08-22T14:04:46.915Z,2.60
2023-08-22T14:07:14.956Z,2.57
2023-08-22T14:09:42.248Z,2.70
2023-08-22T14:12:09.815Z,2.33
2023-08-22T14:14:37.607Z,2.83
2023-08-22T14:17:05.809Z,2.10
2023-08-22T14:19:33.008Z,2.30
2023-08-22T14:49:15.694Z,1.40
2023-08-22T14:51:43.457Z,1.17
2023-08-22T14:54:12.358Z,1.67
2023-08-22T14:56:43.346Z,2.50
2023-08-22T15:17:21.435Z,2.20
2023-08-22T15:19:48.545Z,1.83
2023-08-22T15:22:16.228Z,1.93
2023-08-22T15:24:43.790Z,3.20
2023-08-22T15:27:12.357Z,2.33
2023-08-22T15:29:43.815Z,2.13
2023-08-22T15:32:11.288Z,1.97
2023-08-22T15:34:39.001Z,1.90
2023-08-22T15:37:06.848Z,1.83
2023-08-22T15:39:34.107Z,2.03
2023-08-22T15:42:01.611Z,1.80
2023-08-22T15:44:28.679Z,2.20
2023-08-22T17:56:27.091Z,1.20
2023-08-22T17:58:54.464Z,1.30
2023-08-22T18:01:21.312Z,2.10
2023-08-22T18:03:48.251Z,3.10
2023-08-22T18:06:15.693Z,1.37
2023-08-22T18:08:43.597Z,1.40
2023-08-22T18:11:12.176Z,1.13
2023-08-22T18:13:39.500Z,1.47
2023-08-22T18:16:10.557Z,2.20
2023-08-22T18:18:40.424Z,1.80
2023-08-22T18:21:09.664Z,2.93
2023-08-22T18:23:37.898Z,3.23
2023-08-22T18:26:06.004Z,2.50
2023-08-22T18:28:34.024Z,2.43
2023-08-22T18:31:03.195Z,1.60
2023-08-22T18:33:30.307Z,1.70
2023-08-22T18:35:57.654Z,2.10
2023-08-22T18:38:24.611Z,1.93
2023-08-22T18:40:55.063Z,1.77
2023-08-22T18:43:22.743Z,2.37
2023-08-22T18:45:50.413Z,1.77
2023-08-22T18:48:18.442Z,2.20
2023-08-22T18:50:47.618Z,2.13
2023-08-22T18:53:16.725Z,1.30
2023-08-22T18:55:44.071Z,1.93
2023-08-22T18:58:12.481Z,1.57
2023-08-22T19:00:39.934Z,1.50
2023-08-22T19:03:07.553Z,2.03
2023-08-22T19:05:34.631Z,1.13
2023-08-22T19:08:03.059Z,2.30
2023-08-22T19:10:30.263Z,1.80
2023-08-22T19:12:57.828Z,1.53
2023-08-22T19:15:25.306Z,1.80
2023-08-22T19:17:53.242Z,1.53
2023-08-22T19:20:22.684Z,1.43
2023-08-22T19:22:50.573Z,2.20
2023-08-22T19:25:17.862Z,1.40
2023-08-22T19:27:45.642Z,1.93
2023-08-22T19:30:14.395Z,2.43
2023-08-22T19:33:02.348Z,1.70
2023-08-22T19:35:29.984Z,1.87
2023-08-22T19:37:57.732Z,1.70
2023-08-22T19:40:25.497Z,2.90
2023-08-22T19:42:52.930Z,1.40
2023-08-22T19:45:25.856Z,2.00
2023-08-22T19:47:54.630Z,2.10
2023-08-22T19:50:31.641Z,1.80
2023-08-22T19:53:21.911Z,1.80
2023-08-22T19:55:55.563Z,1.97
2023-08-22T19:58:41.772Z,1.93
2023-08-22T20:05:47.334Z,1.67
2023-08-22T20:09:21.333Z,2.33
2023-08-22T20:12:31.384Z,1.80
2023-08-22T20:37:19.484Z,1.73
2023-08-22T20:40:35.273Z,1.80
2023-08-22T20:44:14.763Z,2.37
2023-08-22T21:22:25.089Z,3.00
2023-08-22T21:29:08.987Z,2.93
2023-08-22T21:31:46.203Z,4.27
2023-08-22T21:34:26.946Z,5.80
2023-08-22T21:37:02.613Z,5.97
2023-08-22T21:39:35.335Z,4.80
2023-08-22T21:42:15.150Z,3.47
2023-08-22T21:44:48.974Z,4.77
2023-08-22T21:47:44.952Z,3.80
2023-08-22T21:58:26.068Z,18.67
2023-08-22T22:01:08.832Z,9.53
2023-08-22T22:07:13.058Z,8.97
2023-08-22T22:16:00.365Z,16.93
2023-08-22T22:18:27.883Z,9.50
2023-08-22T22:20:55.716Z,5.30
2023-08-22T22:23:24.134Z,5.20
2023-08-22T22:26:10.273Z,6.97
2023-08-22T22:28:40.443Z,3.77
2023-08-22T22:31:10.878Z,4.60
2023-08-22T22:33:38.414Z,3.77
2023-08-22T22:36:08.195Z,4.07
2023-08-22T22:38:35.282Z,3.23
2023-08-22T22:41:03.231Z,2.90
2023-08-22T22:43:30.824Z,3.33
2023-08-22T22:45:58.025Z,2.47
2023-08-22T22:48:24.887Z,3.00
2023-08-22T22:50:52.684Z,2.60
2023-08-22T22:53:19.969Z,3.40
2023-08-22T22:55:47.707Z,2.80
2023-08-22T22:58:15.145Z,3.33
2023-08-22T23:00:42.312Z,3.27
2023-08-22T23:03:09.632Z,4.60
2023-08-22T23:05:37.476Z,3.47
2023-08-22T23:08:05.015Z,2.90
2023-08-22T23:10:32.402Z,3.27
2023-08-22T23:13:00.233Z,3.47
2023-08-22T23:15:29.561Z,4.57
2023-08-22T23:17:58.553Z,3.47
2023-08-22T23:23:11.653Z,4.03
2023-08-22T23:25:39.356Z,3.20
2023-08-22T23:28:06.745Z,3.60
2023-08-22T23:30:33.964Z,3.50
2023-08-22T23:33:02.724Z,3.70
2023-08-22T23:35:30.693Z,3.40
2023-08-22T23:37:57.974Z,3.87
2023-08-22T23:40:25.836Z,3.57
2023-08-22T23:42:53.470Z,4.20
2023-08-22T23:45:21.262Z,4.13
2023-08-22T23:47:48.520Z,3.20
2023-08-22T23:50:15.676Z,4.10
2023-08-22T23:52:42.638Z,3.03
2023-08-22T23:55:10.023Z,3.93
2023-08-22T23:57:37.789Z,3.20
